Time;durP1;ratioP1;P1;durP2;ratioP2;P2;SDS_P1;SDS_P2;PMS_P1;PMS_P2;Temp;Humidity;BMP_temperature;BMP_pressure;BME280_temperature;BME280_humidity;BME280_pressure;Samples;Min_cycle;Max_cycle;Signal;HPM_P1;HPM_P2
2023/05/25 00:01:53;;;;;;;18.27;7.13;;;10.00;99.90;;;;;;5057909;28;20101;-74
2023/05/25 00:04:20;;;;;;;18.63;7.40;;;10.00;99.90;;;;;;5056144;28;20104;-74
2023/05/25 00:06:48;;;;;;;17.93;7.67;;;9.90;99.90;;;;;;5058788;28;20059;-74
2023/05/25 00:09:17;;;;;;;17.27;7.53;;;9.90;99.90;;;;;;5058393;28;20077;-74
2023/05/25 00:11:48;;;;;;;14.40;8.10;;;10.00;99.90;;;;;;5058341;28;20032;-74
2023/05/25 00:14:14;;;;;;;18.90;7.90;;;10.00;99.90;;;;;;5059291;28;20025;-74
2023/05/25 00:16:49;;;;;;;14.27;7.47;;;10.00;99.90;;;;;;5076148;28;20029;-74
2023/05/25 00:19:17;;;;;;;15.57;7.80;;;10.00;99.90;;;;;;5057989;28;20044;-74
2023/05/25 00:21:47;;;;;;;20.00;7.90;;;10.00;99.90;;;;;;5058510;28;20025;-77
2023/05/25 00:24:19;;;;;;;19.33;8.20;;;10.00;99.90;;;;;;5057360;28;20040;-74
2023/05/25 00:26:47;;;;;;;19.40;8.15;;;9.90;99.90;;;;;;5057281;28;20088;-73
2023/05/25 00:29:17;;;;;;;17.80;8.00;;;9.80;99.90;;;;;;5057711;28;20029;-73
2023/05/25 00:31:46;;;;;;;19.93;8.47;;;9.70;99.90;;;;;;5058738;28;20025;-74
2023/05/25 00:34:17;;;;;;;13.00;7.40;;;9.70;99.90;;;;;;5057828;28;20028;-74
2023/05/25 00:36:51;;;;;;;17.07;7.47;;;9.60;99.90;;;;;;5058724;28;20214;-74
2023/05/25 00:42:06;;;;;;;17.77;7.37;;;9.50;99.90;;;;;;5075395;28;20009;-74
2023/05/25 00:44:34;;;;;;;20.13;9.00;;;9.50;99.90;;;;;;5057817;28;20025;-74
2023/05/25 00:47:03;;;;;;;17.80;9.00;;;9.50;99.90;;;;;;5075292;28;20033;-74
2023/05/25 00:49:35;;;;;;;17.30;8.20;;;9.50;99.90;;;;;;5057754;28;20025;-73
2023/05/25 00:52:01;;;;;;;;;;;9.50;99.90;;;;;;5057264;28;20059;-74
2023/05/25 00:54:36;;;;;;;17.80;9.03;;;9.50;99.90;;;;;;5056901;28;19917;-74
2023/05/25 00:57:11;;;;;;;17.93;7.60;;;9.40;99.90;;;;;;5056304;28;20056;-74
2023/05/25 00:59:43;;;;;;;17.80;8.50;;;9.40;99.90;;;;;;5073605;28;20027;-74
2023/05/25 01:02:10;;;;;;;18.48;8.98;;;9.40;99.90;;;;;;5074306;28;20037;-74
2023/05/25 01:04:59;;;;;;;19.43;8.87;;;9.40;99.90;;;;;;5072952;28;20052;-74
2023/05/25 01:07:26;;;;;;;17.17;8.10;;;9.30;99.90;;;;;;5057971;28;20035;-74
2023/05/25 01:10:04;;;;;;;13.67;7.93;;;9.30;99.90;;;;;;5057400;28;20416;-73
2023/05/25 01:12:35;;;;;;;20.23;7.97;;;9.20;99.90;;;;;;5057331;28;20045;-74
2023/05/25 01:15:02;;;;;;;19.70;8.73;;;9.20;99.90;;;;;;5057117;28;20033;-74
2023/05/25 01:17:28;;;;;;;29.73;9.40;;;9.20;99.90;;;;;;5074588;28;20028;-74
2023/05/25 01:19:54;;;;;;;18.77;9.07;;;9.30;99.90;;;;;;5057455;28;20029;-74
2023/05/25 01:22:25;;;;;;;18.93;8.57;;;9.20;99.90;;;;;;5056532;28;20025;-74
2023/05/25 01:25:01;;;;;;;17.47;8.10;;;9.20;99.90;;;;;;5056875;28;20091;-74
2023/05/25 01:27:42;;;;;;;21.30;9.33;;;9.10;99.90;;;;;;5056339;28;20272;-74
2023/05/25 01:30:11;;;;;;;18.57;8.60;;;9.00;99.90;;;;;;5055771;28;20051;-73
2023/05/25 01:32:37;;;;;;;15.83;8.27;;;9.10;99.90;;;;;;5056902;28;20017;-74
2023/05/25 01:35:06;;;;;;;19.60;8.40;;;9.00;99.90;;;;;;5056660;28;20041;-73
2023/05/25 01:37:36;;;;;;;14.63;8.70;;;9.00;99.90;;;;;;5054859;28;20013;-74
2023/05/25 01:40:04;;;;;;;19.40;8.40;;;9.00;99.90;;;;;;5056758;28;20062;-74
2023/05/25 01:42:32;;;;;;;21.03;9.20;;;9.00;99.90;;;;;;5057177;28;20009;-74
2023/05/25 01:44:58;;;;;;;18.00;9.80;;;9.00;99.90;;;;;;5057011;28;20032;-74
2023/05/25 01:47:49;;;;;;;19.90;9.57;;;9.00;99.90;;;;;;5056560;28;20502;-74
2023/05/25 01:50:22;;;;;;;19.47;9.23;;;9.00;99.90;;;;;;5073282;28;20005;-74
2023/05/25 01:53:09;;;;;;;17.27;8.87;;;8.90;99.90;;;;;;5074160;28;20017;-74
2023/05/25 01:55:43;;;;;;;21.30;8.77;;;8.90;99.90;;;;;;5056589;28;20056;-74
2023/05/25 01:58:10;;;;;;;14.83;8.40;;;8.90;99.90;;;;;;5057294;28;20045;-74
2023/05/25 02:00:41;;;;;;;15.73;8.30;;;8.80;99.90;;;;;;5073466;28;20009;-74
2023/05/25 02:03:08;;;;;;;16.10;8.03;;;8.80;99.90;;;;;;5055656;28;20017;-74
2023/05/25 02:05:34;;;;;;;28.60;9.10;;;8.70;99.90;;;;;;5073641;28;20043;-74
2023/05/25 02:07:59;;;;;;;17.27;8.37;;;8.70;99.90;;;;;;5056820;28;20088;-74
2023/05/25 02:10:25;;;;;;;21.40;8.60;;;8.60;99.90;;;;;;5055648;28;20194;-74
2023/05/25 02:12:53;;;;;;;19.40;8.77;;;8.60;99.90;;;;;;5057082;28;20126;-74
2023/05/25 02:15:20;;;;;;;20.93;8.37;;;8.60;99.90;;;;;;5056679;28;20036;-74
2023/05/25 02:17:45;;;;;;;19.33;8.90;;;8.50;99.90;;;;;;5056256;28;20021;-74
2023/05/25 02:20:12;;;;;;;17.53;9.07;;;8.50;99.90;;;;;;5057057;28;20024;-74
2023/05/25 02:22:39;;;;;;;21.20;9.80;;;8.50;99.90;;;;;;5057044;28;20020;-74
2023/05/25 02:25:07;;;;;;;18.50;8.50;;;8.50;99.90;;;;;;5056621;28;20051;-74
2023/05/25 02:27:34;;;;;;;19.77;8.90;;;8.50;99.90;;;;;;5055988;28;20147;-74
2023/05/25 02:29:59;;;;;;;17.00;9.37;;;8.40;99.90;;;;;;5056994;28;20028;-74
2023/05/25 02:32:25;;;;;;;22.17;9.77;;;8.40;99.90;;;;;;5056752;28;20029;-74
2023/05/25 02:34:51;;;;;;;19.50;8.67;;;8.40;99.90;;;;;;5056164;28;20089;-74
2023/05/25 02:37:16;;;;;;;23.33;9.23;;;8.50;99.90;;;;;;5056741;28;20033;-74
2023/05/25 02:39:42;;;;;;;15.93;8.17;;;8.40;99.90;;;;;;5056846;28;20073;-74
2023/05/25 02:42:07;;;;;;;14.77;8.57;;;8.40;99.90;;;;;;5055998;28;20013;-74
2023/05/25 02:44:35;;;;;;;22.43;9.87;;;8.40;99.90;;;;;;5074237;28;20013;-73
2023/05/25 02:47:01;;;;;;;16.47;9.23;;;8.30;99.90;;;;;;5056809;28;20025;-74
2023/05/25 02:49:26;;;;;;;22.30;10.03;;;8.30;99.90;;;;;;5059866;28;20116;-74
2023/05/25 02:51:52;;;;;;;23.17;9.33;;;8.20;99.90;;;;;;5078208;28;20025;-74
2023/05/25 02:54:17;;;;;;;18.20;8.77;;;8.20;99.90;;;;;;5077098;28;20045;-74
2023/05/25 02:56:46;;;;;;;15.67;8.77;;;8.20;99.90;;;;;;5060371;28;20017;-74
2023/05/25 02:59:13;;;;;;;16.93;8.33;;;8.20;99.90;;;;;;5076948;28;20036;-74
2023/05/25 03:01:39;;;;;;;15.87;7.93;;;8.20;99.90;;;;;;5060353;28;20100;-74
2023/05/25 03:04:07;;;;;;;13.57;8.30;;;8.20;99.90;;;;;;5077593;28;20013;-74
2023/05/25 03:06:35;;;;;;;20.57;9.70;;;8.10;99.90;;;;;;5076926;28;20021;-73
2023/05/25 03:09:03;;;;;;;16.03;8.77;;;8.10;99.90;;;;;;5059122;28;20241;-74
2023/05/25 03:11:28;;;;;;;24.13;10.13;;;8.10;99.90;;;;;;5059344;28;20039;-74
2023/05/25 03:13:54;;;;;;;20.77;9.80;;;8.00;99.90;;;;;;5059973;28;20081;-74
2023/05/25 03:16:21;;;;;;;23.07;10.40;;;8.00;99.90;;;;;;5059248;28;20046;-74
2023/05/25 03:18:47;;;;;;;16.50;10.07;;;8.00;99.90;;;;;;5077518;28;20016;-74
2023/05/25 03:21:13;;;;;;;17.27;9.80;;;7.90;99.90;;;;;;5076953;28;20021;-73
2023/05/25 03:23:39;;;;;;;17.80;8.53;;;7.80;99.90;;;;;;5059461;28;20033;-73
2023/05/25 03:26:04;;;;;;;20.83;8.87;;;7.80;99.90;;;;;;5077491;28;20085;-74
2023/05/25 03:28:30;;;;;;;21.57;9.57;;;7.80;99.90;;;;;;5059760;28;20037;-73
2023/05/25 03:30:56;;;;;;;17.43;8.57;;;7.80;99.90;;;;;;5076576;28;20051;-74
2023/05/25 03:33:22;;;;;;;18.63;9.03;;;7.80;99.90;;;;;;5059206;28;20013;-74
2023/05/25 03:35:47;;;;;;;22.07;9.70;;;7.80;99.90;;;;;;5059833;28;20036;-74
2023/05/25 03:38:13;;;;;;;15.63;8.70;;;7.90;99.90;;;;;;5057506;28;20029;-74
2023/05/25 03:40:38;;;;;;;24.33;9.30;;;7.80;99.90;;;;;;5059219;28;20032;-74
2023/05/25 03:43:04;;;;;;;17.47;9.17;;;7.80;99.90;;;;;;5059407;28;20257;-74
2023/05/25 03:45:32;;;;;;;21.23;9.83;;;7.80;99.90;;;;;;5076941;28;20025;-74
2023/05/25 03:48:00;;;;;;;20.43;10.27;;;7.80;99.90;;;;;;5059490;28;20013;-74
2023/05/25 03:50:25;;;;;;;14.80;9.67;;;7.80;99.90;;;;;;5059209;28;20080;-74
2023/05/25 03:52:51;;;;;;;17.60;10.43;;;7.70;99.90;;;;;;5059698;28;20013;-74
2023/05/25 03:55:17;;;;;;;17.63;9.57;;;7.70;99.90;;;;;;5059678;28;20032;-74
2023/05/25 03:57:42;;;;;;;19.13;10.00;;;7.70;99.90;;;;;;5076070;28;20085;-74
2023/05/25 04:00:09;;;;;;;21.47;10.97;;;7.70;99.90;;;;;;5057883;28;20027;-74
2023/05/25 04:02:40;;;;;;;23.43;9.53;;;7.70;99.90;;;;;;5076607;28;20088;-74
2023/05/25 04:05:09;;;;;;;19.97;8.93;;;7.70;99.90;;;;;;5057908;28;20028;-73
2023/05/25 04:07:35;;;;;;;17.83;8.77;;;7.70;99.90;;;;;;5059321;28;20064;-73
2023/05/25 04:10:02;;;;;;;18.50;9.40;;;7.70;99.90;;;;;;5075716;28;20040;-74
2023/05/25 04:12:27;;;;;;;24.50;11.17;;;7.70;99.90;;;;;;5075270;28;20032;-74
2023/05/25 04:14:53;;;;;;;16.33;9.07;;;7.70;99.90;;;;;;5058502;28;20084;-74
2023/05/25 04:17:21;;;;;;;17.33;9.17;;;7.70;99.90;;;;;;5059080;28;20105;-74
2023/05/25 04:19:46;;;;;;;19.77;10.63;;;7.70;99.90;;;;;;5057698;28;20017;-74
2023/05/25 04:22:12;;;;;;;22.90;10.43;;;7.80;99.90;;;;;;5075564;28;20024;-74
2023/05/25 04:24:37;;;;;;;22.00;10.70;;;7.80;99.90;;;;;;5058464;28;20085;-74
2023/05/25 04:27:04;;;;;;;17.80;9.97;;;7.80;99.90;;;;;;5058651;28;20136;-74
2023/05/25 04:29:36;;;;;;;22.53;10.37;;;7.80;99.90;;;;;;5058791;28;20063;-73
2023/05/25 04:32:01;;;;;;;23.85;10.70;;;7.80;99.90;;;;;;5058581;28;20047;-73
2023/05/25 04:34:28;;;;;;;23.20;10.13;;;7.80;99.90;;;;;;5058250;28;20073;-74
2023/05/25 04:36:56;;;;;;;15.83;10.33;;;7.80;99.90;;;;;;5075447;28;20020;-74
2023/05/25 04:39:22;;;;;;;18.37;10.43;;;7.80;99.90;;;;;;5058014;28;20049;-74
2023/05/25 04:41:47;;;;;;;18.43;10.30;;;7.80;99.90;;;;;;5075959;28;20041;-73
2023/05/25 04:44:16;;;;;;;20.17;10.63;;;7.80;99.90;;;;;;5075892;28;20056;-74
2023/05/25 04:46:45;;;;;;;18.07;9.63;;;7.80;99.90;;;;;;5057546;28;20025;-74
2023/05/25 04:49:12;;;;;;;17.70;10.60;;;7.80;99.90;;;;;;5058131;28;20036;-73
2023/05/25 04:51:37;;;;;;;22.30;10.73;;;7.90;99.90;;;;;;5057794;28;20013;-73
2023/05/25 04:54:05;;;;;;;20.23;10.93;;;8.00;99.90;;;;;;5057670;28;20071;-73
2023/05/25 04:56:31;;;;;;;24.30;12.10;;;8.00;99.90;;;;;;5058600;28;20032;-73
2023/05/25 04:58:56;;;;;;;22.57;12.27;;;8.10;99.90;;;;;;5058020;28;20044;-74
2023/05/25 05:01:22;;;;;;;20.57;11.50;;;8.20;99.90;;;;;;5057564;28;20028;-74
2023/05/25 05:03:50;;;;;;;28.90;12.53;;;8.20;99.90;;;;;;5057314;28;20040;-73
2023/05/25 05:06:16;;;;;;;22.77;11.93;;;8.20;99.90;;;;;;5075114;28;20013;-74
2023/05/25 05:08:42;;;;;;;23.83;12.03;;;8.30;99.90;;;;;;5058491;28;20094;-74
2023/05/25 05:11:08;;;;;;;21.90;11.90;;;8.40;99.90;;;;;;5074708;28;20140;-73
2023/05/25 05:13:33;;;;;;;28.73;12.67;;;8.40;99.90;;;;;;5058015;28;20029;-74
2023/05/25 05:15:59;;;;;;;30.40;14.03;;;8.50;99.90;;;;;;5055910;28;20041;-74
2023/05/25 05:18:24;;;;;;;33.03;14.23;;;8.60;99.90;;;;;;5057480;28;20021;-74
2023/05/25 05:20:50;;;;;;;27.73;14.37;;;8.60;99.90;;;;;;5057150;28;20048;-74
2023/05/25 05:23:15;;;;;;;29.37;13.23;;;8.70;99.90;;;;;;5057974;28;20114;-74
2023/05/25 05:25:41;;;;;;;24.90;11.93;;;8.80;99.90;;;;;;5057764;28;20028;-74
2023/05/25 05:28:07;;;;;;;27.53;14.00;;;8.80;99.90;;;;;;5056735;28;20021;-74
2023/05/25 05:30:32;;;;;;;33.20;14.13;;;8.90;99.90;;;;;;5056902;28;20047;-73
2023/05/25 05:32:58;;;;;;;29.43;13.87;;;9.00;99.90;;;;;;5074604;28;20092;-74
2023/05/25 05:35:23;;;;;;;31.63;14.93;;;9.10;99.90;;;;;;5072947;28;20029;-73
2023/05/25 05:37:49;;;;;;;35.00;13.57;;;9.10;99.90;;;;;;5056453;28;20033;-74
2023/05/25 05:40:15;;;;;;;31.20;14.10;;;9.20;99.90;;;;;;5056042;28;20045;-74
2023/05/25 05:42:43;;;;;;;27.67;13.17;;;9.30;99.90;;;;;;5057089;28;20088;-74
2023/05/25 05:45:09;;;;;;;27.60;14.00;;;9.30;99.90;;;;;;5056102;28;20027;-73
2023/05/25 05:47:34;;;;;;;33.60;12.63;;;9.40;99.90;;;;;;5055673;28;20017;-73
2023/05/25 05:50:00;;;;;;;35.80;13.70;;;9.50;99.90;;;;;;5056981;28;20017;-73
2023/05/25 05:52:28;;;;;;;37.13;13.37;;;9.60;99.90;;;;;;5073231;28;20028;-74
2023/05/25 05:54:54;;;;;;;32.30;13.13;;;9.60;99.90;;;;;;5070616;28;20033;-74
2023/05/25 05:57:32;;;;;;;;;;;;;;;;;;;;;
2023/05/25 05:59:58;;;;;;;29.53;12.63;;;9.70;99.90;;;;;;5072393;28;20060;-74
2023/05/25 06:02:31;;;;;;;27.93;12.43;;;9.80;99.90;;;;;;5055261;28;20033;-73
2023/05/25 06:05:00;;;;;;;32.97;12.53;;;9.90;99.90;;;;;;5055296;28;20203;-74
2023/05/25 06:07:27;;;;;;;36.10;13.27;;;10.00;99.90;;;;;;5055544;28;20256;-75
2023/05/25 06:09:55;;;;;;;28.37;12.63;;;10.00;99.90;;;;;;5055072;28;20031;-74
2023/05/25 06:12:21;;;;;;;23.90;11.17;;;10.10;99.90;;;;;;5054658;28;20017;-74
2023/05/25 06:14:49;;;;;;;32.17;12.73;;;10.20;99.90;;;;;;5055243;28;20096;-75
2023/05/25 06:17:15;;;;;;;27.77;12.13;;;10.20;99.90;;;;;;5073177;28;20021;-75
2023/05/25 06:19:43;;;;;;;32.30;12.53;;;10.30;99.90;;;;;;5073341;28;20027;-76
2023/05/25 06:22:09;;;;;;;30.70;12.63;;;10.40;99.90;;;;;;5071445;28;20090;-74
2023/05/25 06:24:34;;;;;;;25.40;11.43;;;10.40;99.90;;;;;;5054765;28;20025;-77
2023/05/25 06:27:02;;;;;;;34.73;13.20;;;10.40;99.90;;;;;;5072852;28;20033;-75
2023/05/25 06:29:27;;;;;;;28.83;13.20;;;10.40;99.90;;;;;;5055108;28;20045;-75
2023/05/25 06:31:53;;;;;;;35.47;13.67;;;10.50;99.90;;;;;;5055617;28;20051;-75
2023/05/25 06:34:19;;;;;;;29.63;13.37;;;10.50;99.90;;;;;;5073736;28;20041;-74
2023/05/25 06:36:46;;;;;;;27.10;12.33;;;10.50;99.90;;;;;;5055483;28;20025;-75
2023/05/25 06:39:12;;;;;;;33.07;13.20;;;10.60;99.90;;;;;;5055443;28;20029;-75
2023/05/25 06:41:39;;;;;;;32.87;13.03;;;10.60;99.90;;;;;;5055349;28;20048;-75
2023/05/25 06:44:07;;;;;;;36.00;13.87;;;10.70;99.90;;;;;;5054845;28;20021;-75
2023/05/25 06:46:39;;;;;;;41.80;13.37;;;10.70;99.90;;;;;;5055122;28;20072;-74
2023/05/25 06:49:04;;;;;;;40.53;13.77;;;10.70;99.90;;;;;;5055758;28;20033;-75
2023/05/25 06:51:31;;;;;;;38.00;13.93;;;10.70;99.90;;;;;;5056017;28;20057;-75
2023/05/25 06:53:57;;;;;;;35.23;13.10;;;10.80;99.90;;;;;;5055688;28;20013;-75
2023/05/25 06:56:26;;;;;;;28.37;11.93;;;10.90;99.90;;;;;;5054794;28;20063;-74
2023/05/25 06:58:52;;;;;;;25.27;11.73;;;11.00;99.90;;;;;;5055748;28;20139;-75
2023/05/25 07:01:17;;;;;;;29.83;12.03;;;11.10;99.90;;;;;;5054967;28;20021;-76
2023/05/25 07:03:43;;;;;;;31.73;11.87;;;11.10;99.90;;;;;;5053806;28;20028;-79
2023/05/25 07:06:11;;;;;;;28.37;12.80;;;11.20;99.90;;;;;;5070913;28;20039;-79
2023/05/25 07:08:37;;;;;;;27.43;12.87;;;11.30;99.90;;;;;;5070424;28;20048;-80
2023/05/25 07:11:03;;;;;;;37.67;12.87;;;11.30;99.90;;;;;;5069280;28;20021;-76
2023/05/25 07:13:28;;;;;;;32.63;13.07;;;11.40;99.90;;;;;;5070486;28;20025;-79
2023/05/25 07:15:54;;;;;;;36.23;12.67;;;11.50;99.90;;;;;;5051658;28;20071;-79
2023/05/25 07:18:22;;;;;;;25.90;10.63;;;11.50;99.90;;;;;;5053994;28;20033;-75
2023/05/25 07:20:50;;;;;;;41.23;13.87;;;11.50;99.90;;;;;;5054464;28;20119;-75
2023/05/25 07:23:18;;;;;;;38.40;13.30;;;11.50;99.90;;;;;;5055405;28;20025;-75
2023/05/25 07:25:44;;;;;;;28.13;12.53;;;11.60;99.90;;;;;;5073188;28;20021;-74
2023/05/25 07:28:10;;;;;;;27.27;12.67;;;11.70;99.90;;;;;;5054116;28;20135;-75
2023/05/25 07:30:38;;;;;;;26.57;12.50;;;11.70;99.90;;;;;;5072941;28;20032;-75
2023/05/25 07:33:04;;;;;;;28.50;12.73;;;11.80;99.90;;;;;;5054907;28;20035;-75
2023/05/25 07:35:34;;;;;;;30.77;13.63;;;12.00;99.90;;;;;;5058256;28;20096;-75
2023/05/25 07:38:01;;;;;;;26.07;11.93;;;12.00;99.90;;;;;;5059110;28;20054;-74
2023/05/25 07:40:29;;;;;;;27.43;11.17;;;12.10;99.90;;;;;;5058445;28;20013;-75
2023/05/25 07:42:57;;;;;;;25.63;10.93;;;12.00;99.90;;;;;;5058664;28;20041;-75
2023/05/25 07:45:25;;;;;;;25.80;10.97;;;12.10;99.90;;;;;;5058608;28;20013;-75
2023/05/25 07:47:51;;;;;;;29.43;11.33;;;12.20;99.90;;;;;;5059051;28;20044;-75
2023/05/25 07:50:16;;;;;;;35.40;11.37;;;12.20;99.90;;;;;;5059349;28;20019;-75
2023/05/25 07:52:42;;;;;;;25.43;11.07;;;12.30;99.90;;;;;;5059050;28;20024;-74
2023/05/25 07:55:08;;;;;;;26.07;9.67;;;12.40;99.90;;;;;;5058783;28;20052;-75
2023/05/25 07:57:36;;;;;;;27.93;10.90;;;12.40;99.90;;;;;;5059065;28;20037;-75
2023/05/25 08:00:05;;;;;;;22.10;9.83;;;12.40;99.90;;;;;;5076075;28;20053;-75
2023/05/25 08:02:31;;;;;;;32.53;10.50;;;12.50;99.90;;;;;;5057960;28;20013;-75
2023/05/25 08:04:56;;;;;;;27.10;10.27;;;12.60;99.90;;;;;;5058556;28;20044;-75
2023/05/25 08:07:23;;;;;;;21.77;10.30;;;12.60;99.90;;;;;;5058879;28;20025;-75
2023/05/25 08:09:49;;;;;;;24.90;10.53;;;12.50;99.90;;;;;;5058392;28;20308;-74
2023/05/25 08:12:15;;;;;;;23.60;10.63;;;12.80;99.90;;;;;;5057105;28;20028;-74
2023/05/25 08:14:40;;;;;;;25.67;10.80;;;12.80;99.90;;;;;;5058460;28;20036;-75
2023/05/25 08:17:09;;;;;;;24.93;10.77;;;12.90;99.90;;;;;;5058138;28;20018;-75
2023/05/25 08:19:34;;;;;;;29.40;12.33;;;13.00;99.90;;;;;;5075615;28;20017;-75
2023/05/25 08:22:00;;;;;;;23.33;10.80;;;13.00;99.90;;;;;;5058538;28;20035;-75
2023/05/25 08:24:25;;;;;;;20.10;10.07;;;13.10;99.90;;;;;;5058599;28;20060;-76
2023/05/25 08:26:53;;;;;;;20.90;9.43;;;13.20;99.90;;;;;;5075396;28;20021;-75
2023/05/25 08:29:20;;;;;;;24.00;11.37;;;13.30;99.90;;;;;;5057205;28;20274;-75
2023/05/25 08:31:48;;;;;;;22.73;10.47;;;13.40;99.90;;;;;;5057300;28;20021;-75
2023/05/25 08:34:18;;;;;;;24.27;9.13;;;13.50;99.90;;;;;;5057122;28;20039;-75
2023/05/25 08:36:44;;;;;;;27.07;8.40;;;13.60;99.90;;;;;;5057044;28;20013;-75
2023/05/25 08:39:10;;;;;;;18.73;9.37;;;13.60;99.90;;;;;;5057711;28;20032;-75
2023/05/25 08:41:40;;;;;;;24.70;10.63;;;13.70;99.90;;;;;;5057570;28;20219;-75
2023/05/25 08:44:09;;;;;;;28.93;9.47;;;14.00;99.90;;;;;;5057469;28;20025;-75
2023/05/25 08:46:34;;;;;;;20.53;8.10;;;14.10;99.90;;;;;;5056562;28;20021;-74
2023/05/25 08:49:11;;;;;;;22.97;9.30;;;14.10;99.90;;;;;;5055916;28;20032;-75
2023/05/25 08:51:46;;;;;;;20.17;9.00;;;14.30;99.90;;;;;;5072165;28;20021;-75
2023/05/25 08:54:12;;;;;;;22.40;7.50;;;14.50;99.90;;;;;;5072604;28;20033;-75
2023/05/25 08:57:08;;;;;;;13.57;6.95;;;14.50;99.90;;;;;;5055205;28;20044;-76
2023/05/25 08:59:50;;;;;;;15.07;5.72;;;14.70;99.90;;;;;;5055779;28;20029;-75
2023/05/25 09:03:24;;;;;;;16.67;7.40;;;14.90;99.90;;;;;;5072705;28;20039;-75
2023/05/25 09:05:52;;;;;;;19.48;7.32;;;15.10;99.90;;;;;;5014603;28;20041;-75
2023/05/25 09:08:20;;;;;;;28.40;7.90;;;15.20;99.90;;;;;;5051930;28;20036;-75
2023/05/25 09:10:47;;;;;;;14.57;7.10;;;15.10;99.90;;;;;;5055740;28;20025;-74
2023/05/25 09:13:13;;;;;;;14.32;6.82;;;14.90;99.90;;;;;;5073265;28;20050;-75
2023/05/25 09:15:41;;;;;;;14.32;6.15;;;15.10;99.90;;;;;;5055877;28;20040;-76
2023/05/25 09:18:07;;;;;;;13.77;7.53;;;15.10;99.90;;;;;;5054327;28;20020;-75
2023/05/25 09:20:32;;;;;;;17.23;7.40;;;15.10;99.90;;;;;;5054880;28;20021;-75
2023/05/25 09:22:58;;;;;;;17.38;8.63;;;15.30;99.90;;;;;;5054537;28;20032;-75
2023/05/25 09:25:26;;;;;;;17.88;7.53;;;15.30;99.90;;;;;;5055180;28;20028;-75
2023/05/25 09:27:56;;;;;;;19.90;7.90;;;15.20;99.90;;;;;;5055009;28;20499;-75
2023/05/25 09:30:22;;;;;;;16.63;6.78;;;15.30;99.90;;;;;;5054612;28;20044;-75
2023/05/25 09:32:49;;;;;;;24.00;9.70;;;15.30;99.90;;;;;;5054700;28;20052;-75
2023/05/25 09:35:14;;;;;;;18.02;7.82;;;15.30;99.90;;;;;;5054391;28;20089;-74
2023/05/25 09:37:43;;;;;;;17.33;8.55;;;15.50;99.90;;;;;;5054692;28;20039;-75
2023/05/25 09:40:10;;;;;;;15.45;8.23;;;15.50;99.90;;;;;;5054200;28;20037;-75
2023/05/25 09:42:36;;;;;;;21.27;7.50;;;15.50;99.90;;;;;;5054732;28;20048;-75
2023/05/25 09:45:03;;;;;;;18.88;6.70;;;15.40;99.90;;;;;;5071771;28;20036;-76
2023/05/25 09:47:31;;;;;;;16.45;7.35;;;15.40;99.90;;;;;;5054384;28;20229;-74
2023/05/25 09:49:57;;;;;;;20.67;7.82;;;15.40;99.90;;;;;;5074213;28;20029;-74
2023/05/25 09:52:24;;;;;;;18.25;7.55;;;15.50;99.90;;;;;;5073719;28;20025;-75
2023/05/25 09:54:51;;;;;;;13.68;7.60;;;15.40;99.90;;;;;;5055552;28;20033;-74
2023/05/25 09:57:19;;;;;;;17.42;7.60;;;15.30;99.90;;;;;;5054786;28;20024;-75
2023/05/25 09:59:45;;;;;;;19.00;8.05;;;15.40;99.90;;;;;;5071715;28;20024;-75
2023/05/25 10:02:12;;;;;;;18.85;8.35;;;15.50;99.90;;;;;;5055170;28;20057;-74
2023/05/25 10:04:38;;;;;;;13.73;7.35;;;15.70;99.90;;;;;;5054917;28;20021;-74
2023/05/25 10:07:05;;;;;;;17.60;8.38;;;15.70;99.90;;;;;;5055444;28;20044;-74
2023/05/25 10:09:39;;;;;;;17.98;8.63;;;15.60;99.90;;;;;;5055063;28;20028;-74
2023/05/25 10:12:06;;;;;;;19.33;8.35;;;15.60;99.90;;;;;;5071940;28;20025;-76
2023/05/25 10:14:37;;;;;;;16.88;9.30;;;15.50;99.90;;;;;;5072226;28;20079;-75
2023/05/25 10:17:09;;;;;;;16.02;9.05;;;15.50;99.90;;;;;;5054948;28;20045;-74
2023/05/25 10:19:40;;;;;;;19.23;8.27;;;15.60;99.90;;;;;;5071703;28;20055;-74
2023/05/25 10:22:15;;;;;;;23.77;9.15;;;15.70;99.90;;;;;;5055875;28;20028;-74
2023/05/25 10:24:55;;;;;;;19.40;8.23;;;15.70;99.90;;;;;;5054179;28;20020;-75
2023/05/25 10:27:32;;;;;;;17.88;7.85;;;15.80;99.90;;;;;;5054708;28;20036;-75
2023/05/25 10:30:00;;;;;;;14.32;7.15;;;16.00;99.90;;;;;;5053055;28;20033;-75
2023/05/25 10:32:27;;;;;;;18.55;8.45;;;16.10;99.90;;;;;;5071018;28;20025;-82
2023/05/25 10:34:55;;;;;;;15.80;8.77;;;16.30;99.90;;;;;;5070172;28;20033;-75
2023/05/25 10:37:24;;;;;;;14.75;8.38;;;16.30;99.90;;;;;;5054065;28;20020;-75
2023/05/25 10:39:51;;;;;;;17.13;7.95;;;16.40;99.90;;;;;;5071396;28;20021;-75
2023/05/25 10:42:17;;;;;;;19.58;8.65;;;16.30;99.90;;;;;;5053373;28;20021;-74
2023/05/25 10:44:46;;;;;;;17.63;8.65;;;16.30;99.90;;;;;;5052721;28;20106;-76
2023/05/25 10:47:12;;;;;;;14.38;7.80;;;16.30;99.90;;;;;;5053096;28;20029;-74
2023/05/25 10:49:52;;;;;;;15.05;8.43;;;16.40;99.90;;;;;;5053252;28;20081;-75
2023/05/25 10:52:20;;;;;;;17.52;9.75;;;16.40;99.90;;;;;;5070474;28;20021;-75
2023/05/25 10:54:47;;;;;;;15.52;9.00;;;16.50;99.90;;;;;;5052596;28;20053;-75
2023/05/25 10:57:21;;;;;;;15.90;8.90;;;16.40;99.90;;;;;;5053440;28;20088;-74
2023/05/25 10:59:48;;;;;;;20.40;10.23;;;16.40;99.90;;;;;;5053847;28;20017;-75
2023/05/25 11:02:15;;;;;;;21.65;11.60;;;16.40;99.90;;;;;;5053176;28;20101;-75
2023/05/25 11:04:41;;;;;;;16.95;9.68;;;16.50;99.90;;;;;;5053735;28;20045;-74
2023/05/25 11:07:12;;;;;;;17.55;9.00;;;16.50;99.90;;;;;;5070945;28;20032;-75
2023/05/25 11:09:43;;;;;;;14.57;8.93;;;16.40;99.90;;;;;;5074528;28;20024;-75
2023/05/25 11:12:19;;;;;;;15.57;7.93;;;16.50;99.90;;;;;;5075839;28;20009;-74
2023/05/25 11:15:09;;;;;;;14.55;9.48;;;16.50;99.90;;;;;;5057037;28;20041;-74
2023/05/25 11:18:17;;;;;;;14.20;8.70;;;16.50;99.90;;;;;;5058228;28;20084;-75
2023/05/25 11:20:43;;;;;;;20.13;10.50;;;16.40;99.90;;;;;;5057228;28;20117;-74
2023/05/25 11:23:24;;;;;;;16.13;9.68;;;16.40;99.90;;;;;;5075654;28;20021;-74
2023/05/25 11:25:50;;;;;;;20.17;10.50;;;16.40;99.90;;;;;;5074250;28;20052;-75
2023/05/25 11:28:18;;;;;;;13.77;8.45;;;16.50;99.90;;;;;;5075112;28;20131;-74
2023/05/25 11:30:44;;;;;;;14.82;9.45;;;16.50;99.90;;;;;;5056861;28;20021;-75
2023/05/25 11:33:12;;;;;;;15.93;7.78;;;16.50;99.90;;;;;;5056958;28;20052;-76
2023/05/25 11:35:44;;;;;;;16.13;8.57;;;16.60;99.90;;;;;;5056180;28;20047;-75
2023/05/25 11:38:09;;;;;;;12.77;8.90;;;16.60;99.90;;;;;;5056980;28;20033;-75
2023/05/25 11:40:38;;;;;;;14.38;8.45;;;16.70;99.90;;;;;;5056697;28;20064;-76
2023/05/25 11:43:05;;;;;;;14.95;8.10;;;16.70;99.90;;;;;;5056912;28;20009;-74
2023/05/25 11:45:36;;;;;;;13.73;8.50;;;16.90;99.90;;;;;;5056481;28;20017;-75
2023/05/25 11:48:03;;;;;;;16.05;6.70;;;16.80;99.90;;;;;;5057081;28;20025;-75
2023/05/25 11:50:32;;;;;;;14.93;7.28;;;16.80;99.90;;;;;;5056539;28;20196;-80
2023/05/25 11:52:57;;;;;;;14.57;7.63;;;16.80;99.90;;;;;;5074424;28;20017;-74
2023/05/25 11:55:25;;;;;;;11.55;5.90;;;16.60;99.90;;;;;;5055779;28;20047;-74
2023/05/25 11:57:55;;;;;;;12.20;5.40;;;16.60;99.90;;;;;;5056452;28;20017;-75
2023/05/25 12:00:26;;;;;;;13.10;5.60;;;16.70;99.90;;;;;;5056764;28;20028;-75
2023/05/25 12:02:54;;;;;;;15.77;5.22;;;16.80;99.90;;;;;;5056831;28;20025;-75
2023/05/25 12:05:21;;;;;;;10.57;5.32;;;16.70;99.90;;;;;;5057740;28;20017;-75
2023/05/25 12:07:47;;;;;;;17.85;6.45;;;16.60;99.90;;;;;;5056436;28;20009;-73
2023/05/25 12:10:17;;;;;;;10.43;5.68;;;16.60;99.90;;;;;;5056486;28;20013;-75
2023/05/25 12:12:42;;;;;;;15.65;5.15;;;16.50;99.90;;;;;;5057486;28;20031;-75
2023/05/25 12:15:17;;;;;;;16.10;6.93;;;16.50;99.90;;;;;;5056242;28;20049;-74
2023/05/25 12:17:44;;;;;;;14.90;6.35;;;16.50;99.90;;;;;;5057106;28;20017;-74
2023/05/25 12:20:11;;;;;;;16.75;5.75;;;16.40;99.90;;;;;;5055970;28;20036;-75
2023/05/25 12:22:40;;;;;;;13.45;5.38;;;16.40;99.90;;;;;;5073423;28;20028;-75
2023/05/25 12:25:07;;;;;;;13.48;5.85;;;16.40;99.90;;;;;;5056094;28;20312;-75
2023/05/25 12:27:33;;;;;;;13.48;5.97;;;16.50;99.90;;;;;;5073540;28;20009;-74
2023/05/25 12:30:05;;;;;;;10.93;4.78;;;16.60;99.90;;;;;;5072275;28;20151;-74
2023/05/25 12:32:32;;;;;;;14.20;5.75;;;16.70;99.90;;;;;;5055221;28;20017;-75
2023/05/25 12:35:03;;;;;;;12.80;5.68;;;16.70;99.90;;;;;;5055365;28;20037;-75
2023/05/25 12:37:29;;;;;;;12.50;5.90;;;16.60;99.90;;;;;;5055664;28;20021;-74
2023/05/25 12:39:55;;;;;;;12.95;5.80;;;16.70;99.90;;;;;;5071527;28;20017;-77
2023/05/25 12:42:20;;;;;;;11.20;5.57;;;16.80;99.90;;;;;;5071276;28;20025;-74
2023/05/25 12:44:53;;;;;;;11.00;5.93;;;17.00;99.90;;;;;;5071214;28;20597;-74
2023/05/25 12:47:27;;;;;;;13.57;4.97;;;17.00;99.90;;;;;;5071070;28;20032;-74